Time;durP1;ratioP1;P1;durP2;ratioP2;P2;SDS_P1;SDS_P2;PMS_P1;PMS_P2;Temp;Humidity;BMP_temperature;BMP_pressure;BME280_temperature;BME280_humidity;BME280_pressure;Samples;Min_cycle;Max_cycle;Signal;HPM_P1;HPM_P2
2022/06/19 00:00:37;;;;;;;15.90;9.17;;;27.20;99.90;;;;;;4923584;29;20207;-90
2022/06/19 00:03:09;;;;;;;10.40;8.80;;;26.30;99.90;;;;;;4965916;28;20488;-89
2022/06/19 00:05:38;;;;;;;10.03;9.20;;;27.40;99.90;;;;;;4951615;28;21169;-89
2022/06/19 00:08:09;;;;;;;8.87;8.33;;;24.70;98.40;;;;;;4974549;28;20791;-89
2022/06/19 00:10:50;;;;;;;9.23;8.53;;;25.60;99.90;;;;;;4935139;29;20501;-89
2022/06/19 00:13:23;;;;;;;9.40;8.80;;;24.80;99.90;;;;;;4976705;28;20446;-89
2022/06/19 00:15:49;;;;;;;10.00;9.40;;;25.50;99.90;;;;;;4961397;28;20475;-89
2022/06/19 00:18:15;;;;;;;9.43;8.83;;;26.00;99.90;;;;;;4971803;28;20496;-89
2022/06/19 00:20:41;;;;;;;8.83;8.13;;;24.40;99.90;;;;;;4953568;28;20869;-89
2022/06/19 00:23:07;;;;;;;10.30;9.43;;;24.20;99.90;;;;;;4969560;28;20526;-88
2022/06/19 00:25:34;;;;;;;9.67;8.87;;;24.10;99.90;;;;;;4961633;28;20216;-89
2022/06/19 00:30:55;;;;;;;9.17;8.47;;;27.30;99.90;;;;;;4982457;28;20413;-89
2022/06/19 00:33:24;;;;;;;9.20;8.30;;;24.20;99.90;;;;;;4954152;28;20564;-89
2022/06/19 00:36:15;;;;;;;9.30;8.50;;;22.00;99.90;;;;;;4982310;28;20244;-89
2022/06/19 00:38:47;;;;;;;8.80;8.10;;;24.30;99.90;;;;;;4965412;28;20417;-89
2022/06/19 00:41:15;;;;;;;8.87;8.33;;;24.20;99.90;;;;;;4953173;28;20433;-89
2022/06/19 00:44:14;;;;;;;10.50;8.77;;;23.70;99.90;;;;;;4981139;28;20488;-89
2022/06/19 00:46:55;;;;;;;8.87;8.00;;;23.60;99.90;;;;;;4951906;28;20436;-89
2022/06/19 00:49:39;;;;;;;8.83;8.40;;;23.60;99.90;;;;;;4955533;28;20487;-89
2022/06/19 00:52:12;;;;;;;12.00;8.43;;;24.70;99.90;;;;;;4958944;28;20444;-89
2022/06/19 00:54:53;;;;;;;9.83;8.87;;;23.60;99.90;;;;;;4959613;28;20432;-89
2022/06/19 00:57:23;;;;;;;8.87;8.27;;;23.50;99.90;;;;;;4955133;29;20523;-89
2022/06/19 01:00:27;;;;;;;9.20;8.47;;;23.30;99.90;;;;;;4962905;28;21052;-90
2022/06/19 01:03:30;;;;;;;8.80;8.00;;;23.40;99.90;;;;;;4953417;29;20430;-88
2022/06/19 01:05:56;;;;;;;8.87;8.30;;;25.10;99.90;;;;;;4971226;28;20433;-90
2022/06/19 01:08:27;;;;;;;8.77;7.87;;;23.60;99.90;;;;;;4958765;28;20947;-90
2022/06/19 01:10:54;;;;;;;8.30;7.70;;;23.30;99.90;;;;;;4981292;28;20193;-90
2022/06/19 01:13:35;;;;;;;7.60;7.27;;;23.40;99.90;;;;;;4977675;28;20572;-90
2022/06/19 01:16:04;;;;;;;8.90;8.40;;;23.40;99.90;;;;;;4981419;28;20416;-89
2022/06/19 01:18:33;;;;;;;8.27;7.70;;;24.40;99.90;;;;;;4975553;28;20939;-90
2022/06/19 01:21:28;;;;;;;8.87;8.03;;;23.30;99.90;;;;;;4984037;28;20445;-89
2022/06/19 01:24:33;;;;;;;9.27;8.87;;;23.60;99.90;;;;;;4978455;28;20971;-90
2022/06/19 01:30:06;;;;;;;9.37;8.30;;;23.10;99.90;;;;;;4963534;28;20944;-88
2022/06/19 01:32:34;;;;;;;8.77;8.17;;;23.10;99.90;;;;;;4956827;28;20440;-89
2022/06/19 01:35:32;;;;;;;8.23;7.83;;;22.90;99.90;;;;;;4948738;28;20446;-89
2022/06/19 01:38:00;;;;;;;11.67;10.87;;;23.50;99.90;;;;;;4955217;28;20453;-89
2022/06/19 01:40:35;;;;;;;10.70;9.83;;;23.00;99.90;;;;;;4988985;28;20436;-89
2022/06/19 01:43:09;;;;;;;9.57;8.77;;;23.00;99.90;;;;;;4948920;28;20998;-88
2022/06/19 01:45:42;;;;;;;10.33;9.53;;;22.90;99.90;;;;;;4952315;28;20467;-89
2022/06/19 01:48:17;;;;;;;9.43;8.63;;;22.80;99.90;;;;;;4961489;28;20573;-90
2022/06/19 01:50:54;;;;;;;9.63;9.03;;;22.60;99.90;;;;;;4959876;28;20445;-89
2022/06/19 01:53:24;;;;;;;9.90;9.10;;;22.50;99.90;;;;;;4962399;28;20430;-89
2022/06/19 01:56:09;;;;;;;10.13;9.20;;;22.60;99.90;;;;;;4959297;28;20430;-89
2022/06/19 01:58:46;;;;;;;9.53;8.77;;;22.80;99.90;;;;;;4963737;28;20418;-89
2022/06/19 02:01:39;;;;;;;;;;;;;;;;;;;;;
2022/06/19 02:04:06;;;;;;;9.63;8.83;;;22.90;99.90;;;;;;4956807;29;20533;-89
2022/06/19 02:07:16;;;;;;;10.83;10.00;;;22.90;99.90;;;;;;4958303;28;20449;-90
2022/06/19 02:12:59;;;;;;;10.43;9.53;;;22.60;99.90;;;;;;4960329;29;20462;-89
2022/06/19 02:15:33;;;;;;;10.20;9.43;;;22.40;99.90;;;;;;4963944;29;20493;-91
2022/06/19 02:18:05;;;;;;;10.47;9.70;;;22.30;99.90;;;;;;4965043;29;20464;-90
2022/06/19 02:20:33;;;;;;;9.30;8.33;;;22.20;99.90;;;;;;4972771;28;20446;-89
2022/06/19 02:23:00;;;;;;;8.70;8.30;;;22.00;99.90;;;;;;4980211;28;20457;-88
2022/06/19 02:25:53;;;;;;;8.10;7.67;;;22.00;99.90;;;;;;4969431;28;20422;-90
2022/06/19 02:28:19;;;;;;;8.10;7.70;;;18.90;99.90;;;;;;4954731;29;20789;-90
2022/06/19 02:30:55;;;;;;;9.27;8.67;;;21.90;99.90;;;;;;4965836;28;20447;-90
2022/06/19 02:33:35;;;;;;;8.53;8.10;;;21.20;99.90;;;;;;4940307;29;20483;-89
2022/06/19 02:36:41;;;;;;;7.93;7.57;;;21.90;99.90;;;;;;4929652;29;20431;-89
2022/06/19 02:39:29;;;;;;;6.60;6.30;;;;;;;;;;4955060;28;20434;-89
2022/06/19 02:42:19;;;;;;;6.90;6.33;;;21.50;99.90;;;;;;4950292;29;20434;-89
2022/06/19 02:44:56;;;;;;;7.27;6.90;;;22.00;99.90;;;;;;4978288;28;21027;-89
2022/06/19 02:47:24;;;;;;;6.90;6.70;;;22.10;99.90;;;;;;4940237;28;20440;-89
2022/06/19 02:49:52;;;;;;;6.63;6.13;;;21.60;99.90;;;;;;4953382;28;20453;-89
2022/06/19 02:52:37;;;;;;;5.63;5.30;;;21.50;99.90;;;;;;4951421;28;20464;-89
2022/06/19 02:55:05;;;;;;;6.37;5.97;;;21.40;99.90;;;;;;4937721;28;20800;-89
2022/06/19 02:57:33;;;;;;;5.30;5.10;;;21.40;99.90;;;;;;4941469;28;20803;-88
2022/06/19 03:00:31;;;;;;;;;;;;;;;;;;;;;
2022/06/19 03:03:35;;;;;;;5.33;5.17;;;21.50;99.90;;;;;;4949042;29;20433;-90
2022/06/19 03:06:02;;;;;;;5.50;5.30;;;;;;;;;;4919254;29;20467;-89
2022/06/19 03:08:32;;;;;;;4.77;4.53;;;;;;;;;;4956242;28;20493;-88
2022/06/19 03:10:59;;;;;;;4.87;4.57;;;;;;;;;;4959531;28;20949;-89
2022/06/19 03:13:26;;;;;;;4.73;4.43;;;;;;;;;;4950693;28;20439;-89
2022/06/19 03:16:14;;;;;;;4.43;4.27;;;;;;;;;;4956784;28;20442;-89
2022/06/19 03:18:48;;;;;;;4.00;3.70;;;21.20;99.90;;;;;;4955752;28;20430;-89
2022/06/19 03:21:14;;;;;;;4.33;4.23;;;;;;;;;;4946900;29;20450;-88
2022/06/19 03:23:41;;;;;;;5.93;5.73;;;;;;;;;;4950750;28;20476;-89
2022/06/19 03:26:10;;;;;;;4.40;4.30;;;;;;;;;;4945327;29;20441;-89
2022/06/19 03:28:36;;;;;;;4.87;4.57;;;20.90;99.90;;;;;;4958132;28;20426;-89
2022/06/19 03:31:12;;;;;;;4.27;4.07;;;20.90;99.90;;;;;;4953110;29;20410;-89
2022/06/19 03:33:43;;;;;;;4.90;4.67;;;20.90;99.90;;;;;;4949153;29;20202;-88
2022/06/19 03:36:35;;;;;;;4.60;4.40;;;20.70;99.90;;;;;;4952940;28;20438;-89
2022/06/19 03:39:03;;;;;;;3.80;3.60;;;20.90;99.90;;;;;;4951603;28;20461;-89
2022/06/19 03:41:28;;;;;;;3.60;3.50;;;22.50;99.90;;;;;;4955619;28;20984;-89
2022/06/19 03:43:54;;;;;;;4.00;3.90;;;21.00;99.90;;;;;;4969475;28;20485;-89
2022/06/19 03:47:18;;;;;;;10.40;3.70;;;20.70;99.90;;;;;;4952553;28;20225;-88
2022/06/19 03:50:04;;;;;;;3.47;3.37;;;23.70;99.90;;;;;;4950271;29;20189;-90
2022/06/19 03:52:41;;;;;;;4.10;3.80;;;21.80;99.90;;;;;;4948484;28;20434;-89
2022/06/19 03:55:13;;;;;;;3.57;3.33;;;20.60;99.90;;;;;;4944576;29;20501;-88
2022/06/19 03:57:45;;;;;;;3.80;3.50;;;20.50;99.90;;;;;;4972300;28;20480;-89
2022/06/19 04:00:43;;;;;;;3.40;3.20;;;20.20;99.90;;;;;;4947527;29;20457;-89
2022/06/19 04:03:14;;;;;;;3.67;3.47;;;21.80;99.90;;;;;;4952615;28;20473;-88
2022/06/19 04:05:49;;;;;;;3.40;3.10;;;19.70;99.90;;;;;;4966471;28;20423;-89
2022/06/19 04:08:18;;;;;;;8.70;3.80;;;22.10;99.90;;;;;;4946507;28;20425;-90
2022/06/19 04:10:56;;;;;;;4.80;3.23;;;19.30;99.90;;;;;;4950893;28;20972;-89
2022/06/19 04:13:24;;;;;;;3.60;3.23;;;19.30;99.90;;;;;;4945490;28;21003;-89
2022/06/19 04:15:50;;;;;;;3.63;2.63;;;19.30;99.90;;;;;;4949083;28;20430;-89
2022/06/19 04:18:33;;;;;;;3.30;3.10;;;18.80;99.90;;;;;;4952952;28;20972;-88
2022/06/19 04:21:09;;;;;;;7.67;3.20;;;19.50;99.90;;;;;;4941473;28;20676;-88
2022/06/19 04:23:57;;;;;;;3.53;2.70;;;18.80;99.90;;;;;;4948091;28;20465;-87
2022/06/19 04:26:36;;;;;;;6.43;3.40;;;18.70;99.90;;;;;;4946628;29;20423;-88
2022/06/19 04:29:28;;;;;;;8.63;3.10;;;18.70;99.90;;;;;;4956157;28;20439;-88
2022/06/19 04:31:57;;;;;;;5.90;3.10;;;18.80;99.90;;;;;;4906061;29;20445;-88
2022/06/19 04:34:32;;;;;;;5.10;2.90;;;18.70;99.90;;;;;;4961707;28;20540;-88
2022/06/19 04:37:01;;;;;;;3.50;2.97;;;18.40;99.90;;;;;;4947786;29;20904;-89
2022/06/19 04:39:30;;;;;;;7.63;4.57;;;18.30;99.90;;;;;;4953694;28;20453;-88
2022/06/19 04:42:11;;;;;;;5.30;3.00;;;18.20;99.90;;;;;;4933183;29;20453;-89
2022/06/19 04:44:42;;;;;;;11.60;3.83;;;18.10;99.90;;;;;;4959326;28;20482;-89
2022/06/19 04:47:20;;;;;;;4.57;2.90;;;18.00;99.90;;;;;;4948404;29;20421;-89
2022/06/19 04:50:04;;;;;;;3.73;3.10;;;18.20;99.90;;;;;;4947571;29;20960;-88
2022/06/19 04:52:47;;;;;;;4.10;2.60;;;17.80;99.90;;;;;;4951914;29;20433;-88
2022/06/19 04:55:21;;;;;;;9.23;3.10;;;18.10;99.90;;;;;;4952739;29;20450;-89
2022/06/19 04:58:25;;;;;;;7.87;2.93;;;18.10;99.90;;;;;;4955797;29;20434;-88
2022/06/19 05:01:00;;;;;;;3.20;2.60;;;18.10;99.90;;;;;;4949225;28;20524;-89
2022/06/19 05:03:35;;;;;;;4.83;3.03;;;18.60;99.90;;;;;;4951888;28;20551;-89
2022/06/19 05:06:13;;;;;;;10.27;3.00;;;18.10;99.90;;;;;;4961413;28;20442;-88
2022/06/19 05:08:45;;;;;;;6.97;3.10;;;18.20;99.90;;;;;;4949163;29;20410;-88
2022/06/19 05:11:34;;;;;;;6.10;2.60;;;18.30;99.90;;;;;;4939736;29;20441;-90
2022/06/19 05:14:17;;;;;;;9.67;3.27;;;18.00;99.90;;;;;;4948723;29;20660;-90
2022/06/19 05:16:52;;;;;;;10.17;3.10;;;17.90;99.90;;;;;;4952805;29;20434;-89
2022/06/19 05:19:17;;;;;;;6.70;2.50;;;18.30;99.90;;;;;;4960357;28;20445;-89
2022/06/19 05:21:53;;;;;;;4.53;2.83;;;18.50;99.90;;;;;;4949661;28;20488;-88
2022/06/19 05:24:19;;;;;;;6.00;3.30;;;18.90;99.90;;;;;;4940435;29;20214;-88
2022/06/19 05:26:45;;;;;;;6.83;3.53;;;19.20;99.90;;;;;;4963574;28;20446;-89
2022/06/19 05:29:46;;;;;;;12.30;3.40;;;19.00;99.90;;;;;;4953110;29;20197;-88
2022/06/19 05:32:33;;;;;;;4.17;2.87;;;18.50;99.90;;;;;;4882537;29;20196;-86
2022/06/19 05:35:02;;;;;;;5.67;3.13;;;18.70;99.90;;;;;;4952304;28;20449;-86
2022/06/19 05:37:35;;;;;;;16.63;4.13;;;18.80;99.90;;;;;;4953775;28;20430;-86
2022/06/19 05:40:21;;;;;;;6.00;3.03;;;18.60;99.90;;;;;;4939496;29;20522;-87
2022/06/19 05:43:02;;;;;;;6.70;2.83;;;18.90;99.90;;;;;;4958910;29;20446;-87
2022/06/19 05:45:34;;;;;;;4.30;3.30;;;18.80;99.90;;;;;;4942734;28;20462;-86
2022/06/19 05:48:33;;;;;;;4.60;3.23;;;18.70;99.90;;;;;;4956618;28;20477;-86
2022/06/19 05:51:30;;;;;;;6.07;2.70;;;19.00;99.90;;;;;;4945964;28;20953;-86
2022/06/19 05:54:26;;;;;;;6.03;2.67;;;18.80;99.90;;;;;;4940536;29;20442;-86
2022/06/19 05:57:13;;;;;;;8.48;3.38;;;19.10;99.90;;;;;;4256726;28;10000692;-87
2022/06/19 05:59:39;;;;;;;2.93;2.70;;;19.20;99.90;;;;;;4942916;29;20186;-87
2022/06/19 06:02:05;;;;;;;7.17;2.70;;;19.10;99.90;;;;;;4951214;28;20524;-88
2022/06/19 06:04:45;;;;;;;3.37;2.30;;;19.70;99.90;;;;;;4945097;28;20243;-87
2022/06/19 06:07:38;;;;;;;5.67;3.57;;;20.00;99.90;;;;;;4950886;29;20429;-86
2022/06/19 06:10:04;;;;;;;4.87;2.30;;;20.40;99.90;;;;;;4938970;29;20438;-85
2022/06/19 06:12:32;;;;;;;2.20;2.00;;;20.50;99.90;;;;;;4954835;28;20453;-89
2022/06/19 06:15:09;;;;;;;9.00;3.13;;;20.80;99.90;;;;;;4952015;28;20449;-87
2022/06/19 06:17:53;;;;;;;4.50;2.53;;;21.10;99.90;;;;;;4944389;29;20426;-87
2022/06/19 06:20:29;;;;;;;;;;;;;;;;;;;;;
2022/06/19 06:22:58;;;;;;;5.90;2.80;;;21.20;99.90;;;;;;4947229;28;20436;-87
2022/06/19 06:25:29;;;;;;;5.33;4.80;;;21.40;99.90;;;;;;4956645;28;20477;-88
2022/06/19 06:27:55;;;;;;;4.70;3.17;;;21.40;99.90;;;;;;4923664;29;20438;-87
2022/06/19 06:30:27;;;;;;;3.03;2.57;;;21.30;99.90;;;;;;4951996;28;20456;-86
2022/06/19 06:32:52;;;;;;;7.67;2.60;;;21.40;99.90;;;;;;4957110;28;21000;-87
2022/06/19 06:35:20;;;;;;;4.80;3.30;;;21.50;99.90;;;;;;4947235;28;20531;-88
2022/06/19 06:37:51;;;;;;;5.83;2.80;;;21.60;97.60;;;;;;4970794;28;20646;-87
2022/06/19 06:41:01;;;;;;;4.43;2.90;;;21.70;98.50;;;;;;4929663;29;20439;-88
2022/06/19 06:43:34;;;;;;;8.40;2.90;;;21.80;98.50;;;;;;4892875;29;20473;-87
2022/06/19 06:46:15;;;;;;;4.60;2.77;;;22.00;96.40;;;;;;4872338;29;20525;-86
2022/06/19 06:48:41;;;;;;;6.47;2.50;;;22.60;95.90;;;;;;4934031;28;20434;-87
2022/06/19 06:51:16;;;;;;;4.30;2.87;;;23.00;94.00;;;;;;4964739;28;20433;-88
2022/06/19 06:53:50;;;;;;;9.70;3.10;;;23.30;92.40;;;;;;4952299;28;20445;-87
2022/06/19 06:56:32;;;;;;;9.97;2.93;;;23.70;91.20;;;;;;4972222;28;20504;-88
2022/06/19 06:58:57;;;;;;;3.63;2.70;;;23.60;90.90;;;;;;4948720;28;20849;-88
2022/06/19 07:01:24;;;;;;;7.17;3.30;;;23.70;90.20;;;;;;4952151;28;20523;-88
2022/06/19 07:04:21;;;;;;;4.77;3.03;;;24.20;88.60;;;;;;4953972;28;20218;-88
2022/06/19 07:06:47;;;;;;;5.73;3.30;;;24.50;86.70;;;;;;4929913;28;20992;-87
2022/06/19 07:09:25;;;;;;;4.53;2.50;;;25.00;86.00;;;;;;4968349;28;20441;-88
2022/06/19 07:11:51;;;;;;;3.60;3.10;;;25.20;87.40;;;;;;4951771;28;20250;-88
2022/06/19 07:14:18;;;;;;;6.00;2.37;;;25.90;83.70;;;;;;4967588;28;20461;-87
2022/06/19 07:17:16;;;;;;;8.40;2.87;;;25.90;79.50;;;;;;4952343;28;20191;-88
2022/06/19 07:19:47;;;;;;;6.77;2.90;;;25.40;78.00;;;;;;4937041;28;20453;-88
2022/06/19 07:32:51;;;;;;;4.90;2.83;;;27.40;70.30;;;;;;4803751;23;20537;-87
2022/06/19 07:35:17;;;;;;;4.20;2.40;;;27.40;64.60;;;;;;5010276;28;20435;-86
2022/06/19 07:37:42;;;;;;;5.60;3.50;;;27.70;64.60;;;;;;5009657;28;20432;-87
2022/06/19 07:40:26;;;;;;;5.67;3.37;;;27.20;62.30;;;;;;5030254;28;20805;-86
2022/06/19 07:43:17;;;;;;;7.13;3.83;;;26.40;63.20;;;;;;4990786;28;20173;-87
2022/06/19 07:45:43;;;;;;;7.73;3.13;;;27.20;61.60;;;;;;4983151;28;20531;-86
2022/06/19 07:50:59;;;;;;;4.97;2.87;;;27.40;59.00;;;;;;4995638;28;20551;-88
2022/06/19 07:53:25;;;;;;;3.13;2.40;;;26.50;60.90;;;;;;5037494;28;20445;-88
2022/06/19 07:56:10;;;;;;;3.70;2.73;;;26.80;62.10;;;;;;5024411;28;20427;-88
2022/06/19 07:59:28;;;;;;;4.77;2.97;;;28.20;64.80;;;;;;4996030;28;20271;-86
2022/06/19 08:01:57;;;;;;;5.37;3.13;;;26.80;61.70;;;;;;5005027;28;20420;-89
2022/06/19 08:04:23;;;;;;;8.13;3.10;;;27.10;64.10;;;;;;5034587;28;20466;-89
2022/06/19 08:07:45;;;;;;;8.33;3.87;;;27.70;63.30;;;;;;5026059;28;20505;-86
2022/06/19 08:13:37;;;;;;;8.97;4.20;;;27.80;63.70;;;;;;4996099;28;20412;-87
2022/06/19 08:16:19;;;;;;;10.13;4.70;;;28.80;76.50;;;;;;4999543;28;20796;-86
2022/06/19 08:18:50;;;;;;;7.07;4.00;;;25.20;54.40;;;;;;4675506;28;9999798;-87
2022/06/19 08:21:44;;;;;;;5.97;4.47;;;27.30;56.60;;;;;;5007694;28;20458;-88
2022/06/19 08:27:42;;;;;;;5.30;3.07;;;26.20;56.50;;;;;;5000103;28;20515;-87
2022/06/19 08:31:01;;;;;;;7.97;3.60;;;26.80;57.40;;;;;;5013430;28;20522;-87
2022/06/19 08:33:29;;;;;;;4.40;3.40;;;28.40;56.70;;;;;;4977131;28;20471;-86
2022/06/19 08:36:11;;;;;;;9.20;4.93;;;26.70;57.20;;;;;;4975299;28;20467;-87
2022/06/19 08:39:22;;;;;;;9.33;4.23;;;27.50;55.40;;;;;;4997278;28;20476;-88
2022/06/19 08:42:21;;;;;;;4.27;3.50;;;28.00;54.90;;;;;;4916360;29;21145;-88
2022/06/19 08:45:24;;;;;;;6.30;3.23;;;29.50;53.50;;;;;;4984574;28;20486;-88
2022/06/19 08:48:17;;;;;;;5.70;3.40;;;30.00;52.70;;;;;;5011170;28;20532;-86
2022/06/19 08:51:18;;;;;;;6.03;3.60;;;30.20;52.50;;;;;;5007742;28;20432;-87
2022/06/19 08:54:26;;;;;;;4.40;3.03;;;30.30;51.30;;;;;;4997353;28;20958;-87
2022/06/19 08:57:18;;;;;;;5.80;3.43;;;30.10;51.30;;;;;;5010168;28;20439;-86
2022/06/19 09:00:15;;;;;;;5.00;3.27;;;32.90;52.70;;;;;;4999198;28;20582;-86
2022/06/19 09:03:23;;;;;;;9.83;3.37;;;29.80;51.40;;;;;;5004117;28;20450;-86
2022/06/19 09:06:16;;;;;;;3.90;2.77;;;30.90;50.20;;;;;;5010696;28;20450;-86
2022/06/19 09:09:14;;;;;;;8.60;3.83;;;30.10;50.20;;;;;;5013120;28;20427;-86
2022/06/19 09:12:24;;;;;;;9.70;3.57;;;30.10;48.50;;;;;;5014926;28;20442;-87
2022/06/19 09:15:45;;;;;;;7.40;3.57;;;29.70;48.10;;;;;;5016981;28;21037;-85
2022/06/19 09:21:36;;;;;;;4.33;3.13;;;28.80;50.40;;;;;;5006807;28;20446;-86
2022/06/19 09:24:28;;;;;;;6.77;2.97;;;28.50;50.60;;;;;;5017504;28;20470;-86
2022/06/19 09:26:59;;;;;;;8.03;3.17;;;30.30;50.90;;;;;;5014606;28;20482;-86
2022/06/19 09:29:33;;;;;;;7.00;3.10;;;28.20;52.30;;;;;;5017244;28;20428;-85
2022/06/19 09:32:18;;;;;;;5.90;3.20;;;27.50;64.60;;;;;;5014978;28;20482;-85
2022/06/19 09:35:12;;;;;;;3.23;2.93;;;27.40;50.00;;;;;;5006036;28;20445;-86
2022/06/19 09:37:54;;;;;;;5.50;3.10;;;27.30;49.90;;;;;;5011703;28;20448;-85
2022/06/19 09:40:36;;;;;;;6.60;3.13;;;29.20;50.50;;;;;;5017543;28;20416;-85
2022/06/19 09:43:22;;;;;;;6.13;2.83;;;27.70;50.10;;;;;;4671723;28;10000714;-84
2022/06/19 09:45:52;;;;;;;6.07;2.90;;;28.50;50.20;;;;;;5010358;28;20445;-84
2022/06/19 09:48:40;;;;;;;5.77;3.03;;;27.40;50.40;;;;;;5014327;28;20436;-85
2022/06/19 09:51:39;;;;;;;13.50;4.20;;;;;;;;;;5014887;28;20497;-87
2022/06/19 09:54:07;;;;;;;6.47;3.93;;;26.00;55.20;;;;;;4990623;28;20439;-86
2022/06/19 09:56:54;;;;;;;10.33;3.90;;;25.50;56.50;;;;;;5011443;28;20475;-86
2022/06/19 09:59:49;;;;;;;6.70;3.53;;;25.30;57.50;;;;;;5009762;28;20514;-86
2022/06/19 10:02:30;;;;;;;5.40;4.03;;;24.60;63.90;;;;;;5006215;28;20416;-85
2022/06/19 10:05:16;;;;;;;5.20;3.87;;;24.40;62.70;;;;;;5019592;28;20486;-85
2022/06/19 10:07:46;;;;;;;28.73;6.00;;;24.00;62.70;;;;;;4995184;28;20449;-85
2022/06/19 10:10:49;;;;;;;10.73;4.60;;;24.30;67.20;;;;;;5008607;28;20965;-85
2022/06/19 10:13:36;;;;;;;6.83;3.90;;;25.70;64.80;;;;;;4998581;28;20953;-86
2022/06/19 10:16:23;;;;;;;8.30;3.30;;;24.50;62.20;;;;;;5005710;28;20435;-86
2022/06/19 10:19:01;;;;;;;4.83;3.30;;;27.70;64.10;;;;;;5006980;28;20442;-85
2022/06/19 10:28:37;;;;;;;6.23;4.00;;;26.00;58.80;;;;;;5018493;28;20426;-86
2022/06/19 10:31:19;;;;;;;3.77;3.23;;;23.10;57.90;;;;;;5012967;28;20469;-86
2022/06/19 10:33:54;;;;;;;6.17;3.20;;;25.80;64.10;;;;;;4969416;28;20436;-86
2022/06/19 10:37:07;;;;;;;4.07;3.60;;;23.90;79.40;;;;;;4976437;28;20502;-86
2022/06/19 10:39:32;;;;;;;9.30;3.70;;;24.10;79.10;;;;;;4981026;28;20733;-86
2022/06/19 10:42:05;;;;;;;8.73;3.77;;;24.00;79.40;;;;;;4979475;28;20444;-86
2022/06/19 10:44:57;;;;;;;8.80;4.13;;;24.10;77.50;;;;;;4978743;28;20276;-84
2022/06/19 10:48:03;;;;;;;;;;;;;;;;;;;;;
2022/06/19 10:51:20;;;;;;;8.57;4.80;;;25.50;73.50;;;;;;4991071;28;20434;-86
2022/06/19 10:53:47;;;;;;;13.87;6.07;;;26.30;70.40;;;;;;4991247;28;20437;-88
2022/06/19 10:56:58;;;;;;;9.13;5.37;;;27.30;60.70;;;;;;4968940;28;20862;-86
2022/06/19 10:59:26;;;;;;;12.40;3.93;;;28.20;58.60;;;;;;4987613;28;20479;-85
2022/06/19 11:05:15;;;;;;;7.50;3.80;;;28.80;57.40;;;;;;5003369;28;21055;-87
2022/06/19 11:07:45;;;;;;;5.70;3.30;;;28.50;57.90;;;;;;5007638;28;20456;-86
2022/06/19 11:10:56;;;;;;;3.40;3.10;;;30.00;57.20;;;;;;4976940;28;20507;-87
2022/06/19 11:23:49;;;;;;;5.77;4.27;;;31.90;53.20;;;;;;4983761;28;20488;-90
2022/06/19 11:26:37;;;;;;;5.23;3.63;;;31.10;52.80;;;;;;4972254;29;20427;-92
2022/06/19 11:29:20;;;;;;;10.63;3.77;;;32.10;52.70;;;;;;4951361;29;20426;-94
2022/06/19 11:35:17;;;;;;;6.50;4.00;;;30.80;53.40;;;;;;4962139;23;20998;-87
2022/06/19 11:37:51;;;;;;;5.43;3.40;;;31.20;54.80;;;;;;4988828;28;20496;-88
2022/06/19 11:40:30;;;;;;;9.07;3.57;;;30.00;54.10;;;;;;4966902;28;20437;-88
2022/06/19 11:42:59;;;;;;;9.53;4.00;;;29.50;56.40;;;;;;4973034;28;21003;-87
2022/06/19 11:45:33;;;;;;;8.83;4.97;;;29.10;56.80;;;;;;4982860;28;20509;-88
2022/06/19 11:48:24;;;;;;;4.13;3.40;;;28.60;56.40;;;;;;4959496;28;20528;-86
2022/06/19 11:50:52;;;;;;;6.90;4.00;;;30.10;56.70;;;;;;4966585;28;20444;-84
2022/06/19 11:53:59;;;;;;;;;;;;;;;;;;;;;
2022/06/19 11:56:40;;;;;;;5.23;3.63;;;28.80;55.50;;;;;;4968333;28;20436;-87
2022/06/19 11:59:58;;;;;;;5.70;3.57;;;29.30;55.70;;;;;;4975796;28;20882;-88
2022/06/19 12:02:28;;;;;;;4.83;3.50;;;29.80;55.20;;;;;;4892606;29;20466;-87
2022/06/19 12:05:06;;;;;;;5.73;3.67;;;30.50;55.20;;;;;;4891533;29;20480;-88
2022/06/19 12:07:50;;;;;;;7.47;4.07;;;30.70;55.60;;;;;;4954370;28;20453;-86
2022/06/19 12:10:41;;;;;;;4.47;2.53;;;31.90;55.20;;;;;;4978746;28;20954;-88
2022/06/19 12:13:54;;;;;;;5.17;3.97;;;32.00;54.30;;;;;;4965210;28;20441;-87
2022/06/19 12:16:26;;;;;;;5.80;3.30;;;31.70;53.80;;;;;;4969825;28;20429;-87
2022/06/19 12:19:35;;;;;;;6.57;3.70;;;31.40;54.70;;;;;;4974557;28;20505;-86
2022/06/19 12:22:04;;;;;;;9.10;4.10;;;31.60;54.30;;;;;;4957846;28;20458;-86
2022/06/19 12:25:11;;;;;;;4.27;3.87;;;31.00;54.40;;;;;;4953220;28;21097;-87
2022/06/19 12:27:53;;;;;;;6.40;4.17;;;31.00;54.30;;;;;;4953215;28;20432;-86
2022/06/19 12:30:45;;;;;;;7.40;4.67;;;31.10;54.30;;;;;;4949286;28;20537;-85
2022/06/19 12:33:27;;;;;;;6.67;4.57;;;32.00;53.50;;;;;;4941745;29;20944;-86
2022/06/19 12:35:53;;;;;;;4.87;4.10;;;31.10;53.20;;;;;;4960844;28;20531;-87
2022/06/19 12:38:29;;;;;;;8.93;4.30;;;31.60;53.80;;;;;;4958914;28;20446;-88
2022/06/19 12:41:28;;;;;;;6.20;4.10;;;31.70;53.50;;;;;;4947303;29;20182;-85
2022/06/19 12:44:30;;;;;;;6.40;5.60;;;32.10;53.60;;;;;;4945469;28;20481;-87
2022/06/19 12:47:35;;;;;;;6.77;4.80;;;32.50;53.80;;;;;;4951262;29;20417;-85
2022/06/19 12:50:39;;;;;;;12.20;5.40;;;32.30;53.60;;;;;;4951530;29;20445;-86
2022/06/19 12:53:35;;;;;;;5.90;4.20;;;32.80;52.90;;;;;;4972104;28;20452;-87
2022/06/19 12:56:30;;;;;;;6.43;4.50;;;33.10;52.00;;;;;;4956876;28;20418;-86
2022/06/19 12:59:28;;;;;;;4.83;4.23;;;33.30;52.40;;;;;;4944742;29;20414;-88
2022/06/19 13:02:27;;;;;;;5.70;4.30;;;33.30;53.10;;;;;;4953533;29;20446;-87
2022/06/19 13:05:16;;;;;;;7.77;4.23;;;32.80;52.20;;;;;;4952829;28;20878;-89
2022/06/19 13:07:58;;;;;;;6.03;4.87;;;32.20;52.20;;;;;;4954966;29;20469;-87
2022/06/19 13:10:50;;;;;;;6.93;4.20;;;32.70;52.30;;;;;;4953931;29;20491;-86
2022/06/19 13:13:29;;;;;;;7.20;3.93;;;33.70;53.90;;;;;;4957252;28;20441;-87
2022/06/19 13:15:55;;;;;;;7.30;3.27;;;32.00;54.30;;;;;;4950106;29;20438;-88
2022/06/19 13:18:51;;;;;;;6.50;3.40;;;30.70;54.90;;;;;;4969999;28;20432;-88
2022/06/19 13:21:32;;;;;;;6.23;3.40;;;31.50;55.80;;;;;;4954294;28;20218;-87
2022/06/19 13:24:52;;;;;;;4.93;3.30;;;30.60;55.20;;;;;;4970934;28;20460;-87
2022/06/19 13:27:52;;;;;;;6.47;3.20;;;29.50;53.70;;;;;;4948912;29;20948;-86
2022/06/19 13:30:30;;;;;;;4.40;3.27;;;32.00;54.60;;;;;;4960543;28;20541;-86
2022/06/19 13:33:33;;;;;;;4.03;2.90;;;32.90;54.60;;;;;;4946674;28;20453;-88
2022/06/19 13:36:10;;;;;;;4.83;3.50;;;32.30;53.40;;;;;;4944482;28;20469;-87
2022/06/19 13:39:14;;;;;;;6.30;3.43;;;33.10;52.70;;;;;;4974517;28;20435;-87
2022/06/19 13:42:07;;;;;;;6.67;3.67;;;33.30;52.60;;;;;;4939361;29;20510;-87
2022/06/19 13:45:27;;;;;;;7.57;3.37;;;32.60;53.20;;;;;;4935832;29;20469;-87
2022/06/19 13:48:21;;;;;;;7.83;3.67;;;32.00;53.70;;;;;;4915442;29;20492;-86
2022/06/19 13:50:49;;;;;;;5.23;3.10;;;;;;;;;;4975566;28;20437;-88
2022/06/19 13:54:01;;;;;;;7.53;3.57;;;30.20;58.80;;;;;;4974419;28;20445;-89
2022/06/19 13:56:39;;;;;;;3.63;2.70;;;29.60;56.30;;;;;;4949295;28;20461;-88
2022/06/19 13:59:36;;;;;;;7.93;3.30;;;29.40;55.60;;;;;;4964845;28;20441;-88
2022/06/19 14:02:21;;;;;;;4.30;3.90;;;31.10;54.60;;;;;;4945326;28;20465;-87
2022/06/19 14:05:05;;;;;;;5.35;3.17;;;33.40;56.70;;;;;;4269683;28;10000720;-89
2022/06/19 14:08:08;;;;;;;4.43;3.00;;;30.00;55.90;;;;;;4951932;28;20174;-88
2022/06/19 14:10:46;;;;;;;7.20;3.40;;;30.10;56.70;;;;;;4959331;28;20548;-87
2022/06/19 14:13:41;;;;;;;3.70;3.13;;;29.90;56.20;;;;;;4948424;28;20788;-86
2022/06/19 14:16:34;;;;;;;3.70;3.40;;;29.30;56.50;;;;;;4941710;29;20477;-87
2022/06/19 14:19:33;;;;;;;3.77;3.00;;;29.30;55.80;;;;;;4953930;28;20442;-87
2022/06/19 14:22:27;;;;;;;7.90;3.80;;;30.40;56.20;;;;;;4949424;28;20454;-87
2022/06/19 14:25:27;;;;;;;4.17;3.70;;;31.70;55.80;;;;;;4951069;28;20473;-87
2022/06/19 14:27:56;;;;;;;4.60;2.60;;;32.20;54.80;;;;;;4966878;28;20450;-87
2022/06/19 14:30:32;;;;;;;3.17;2.97;;;31.70;54.10;;;;;;4952697;28;20453;-86
2022/06/19 14:33:07;;;;;;;5.00;3.43;;;31.90;54.10;;;;;;4938411;29;20525;-89
2022/06/19 14:35:38;;;;;;;3.97;3.00;;;32.20;53.70;;;;;;4951296;29;20489;-86
2022/06/19 14:38:07;;;;;;;4.97;3.20;;;31.70;53.80;;;;;;4938205;28;20433;-85
2022/06/19 14:40:35;;;;;;;3.27;3.07;;;31.40;54.00;;;;;;4947665;28;20423;-88
2022/06/19 14:43:09;;;;;;;8.33;3.50;;;31.80;54.90;;;;;;4942000;28;20451;-86
2022/06/19 14:45:58;;;;;;;3.70;2.80;;;31.90;54.80;;;;;;4944195;29;20483;-88
2022/06/19 14:48:37;;;;;;;7.97;3.17;;;31.80;55.60;;;;;;4950698;28;20446;-87
2022/06/19 14:51:22;;;;;;;6.03;3.03;;;29.50;54.50;;;;;;4952869;29;20433;-90
2022/06/19 14:54:35;;;;;;;4.83;3.40;;;29.60;55.50;;;;;;4945379;29;20827;-87
2022/06/19 14:57:27;;;;;;;6.27;4.00;;;29.20;56.50;;;;;;4902586;29;20448;-89
2022/06/19 15:00:18;;;;;;;6.10;3.40;;;28.80;56.70;;;;;;4942428;29;20424;-87
2022/06/19 15:02:50;;;;;;;3.90;3.60;;;27.30;57.30;;;;;;4966122;28;20501;-87
2022/06/19 15:05:28;;;;;;;6.40;3.30;;;27.20;57.00;;;;;;4950739;29;20466;-87
2022/06/19 15:08:02;;;;;;;4.77;4.00;;;26.80;58.50;;;;;;4940708;29;20818;-87